sensor_id;sensor_type;location;lat;lon;timestamp;P1;durP1;ratioP1;P2;durP2;ratioP2
15043;SDS011;7619;48.562;8.910;2022-07-22T00:00:24;5.73;;;3.80;;
15043;SDS011;7619;48.562;8.910;2022-07-22T00:02:53;4.53;;;4.13;;
15043;SDS011;7619;48.562;8.910;2022-07-22T00:05:22;4.20;;;3.80;;
15043;SDS011;7619;48.562;8.910;2022-07-22T00:07:51;4.03;;;3.73;;
15043;SDS011;7619;48.562;8.910;2022-07-22T00:10:20;4.37;;;3.73;;
15043;SDS011;7619;48.562;8.910;2022-07-22T00:12:49;5.23;;;3.90;;
15043;SDS011;7619;48.562;8.910;2022-07-22T00:15:18;4.33;;;3.70;;
15043;SDS011;7619;48.562;8.910;2022-07-22T00:17:47;5.80;;;4.50;;
15043;SDS011;7619;48.562;8.910;2022-07-22T00:20:16;5.30;;;3.70;;
15043;SDS011;7619;48.562;8.910;2022-07-22T00:22:46;4.53;;;3.70;;
15043;SDS011;7619;48.562;8.910;2022-07-22T00:25:15;4.03;;;3.73;;
15043;SDS011;7619;48.562;8.910;2022-07-22T00:27:44;4.73;;;4.20;;
15043;SDS011;7619;48.562;8.910;2022-07-22T00:30:13;4.53;;;3.70;;
15043;SDS011;7619;48.562;8.910;2022-07-22T00:32:42;4.53;;;4.13;;
15043;SDS011;7619;48.562;8.910;2022-07-22T00:35:11;4.63;;;4.20;;
15043;SDS011;7619;48.562;8.910;2022-07-22T00:37:39;4.93;;;4.40;;
15043;SDS011;7619;48.562;8.910;2022-07-22T00:40:09;7.93;;;4.50;;
15043;SDS011;7619;48.562;8.910;2022-07-22T00:42:39;5.17;;;4.70;;
15043;SDS011;7619;48.562;8.910;2022-07-22T00:45:08;5.70;;;4.40;;
15043;SDS011;7619;48.562;8.910;2022-07-22T00:47:37;4.37;;;3.97;;
15043;SDS011;7619;48.562;8.910;2022-07-22T00:50:06;4.07;;;3.57;;
15043;SDS011;7619;48.562;8.910;2022-07-22T00:52:36;6.00;;;4.47;;
15043;SDS011;7619;48.562;8.910;2022-07-22T00:55:05;4.80;;;4.40;;
15043;SDS011;7619;48.562;8.910;2022-07-22T00:57:36;7.47;;;4.20;;
15043;SDS011;7619;48.562;8.910;2022-07-22T01:00:06;5.13;;;4.37;;
15043;SDS011;7619;48.562;8.910;2022-07-22T01:02:34;5.37;;;4.27;;
15043;SDS011;7619;48.562;8.910;2022-07-22T01:05:04;4.30;;;3.90;;
15043;SDS011;7619;48.562;8.910;2022-07-22T01:07:33;4.33;;;3.90;;
15043;SDS011;7619;48.562;8.910;2022-07-22T01:10:05;6.60;;;4.30;;
15043;SDS011;7619;48.562;8.910;2022-07-22T01:12:33;4.83;;;4.33;;
15043;SDS011;7619;48.562;8.910;2022-07-22T01:15:03;4.73;;;3.83;;
15043;SDS011;7619;48.562;8.910;2022-07-22T01:17:31;4.37;;;3.97;;
15043;SDS011;7619;48.562;8.910;2022-07-22T01:20:00;3.97;;;3.67;;
15043;SDS011;7619;48.562;8.910;2022-07-22T01:22:31;4.67;;;4.00;;
15043;SDS011;7619;48.562;8.910;2022-07-22T01:25:00;10.70;;;4.40;;
15043;SDS011;7619;48.562;8.910;2022-07-22T01:27:29;4.27;;;3.87;;
15043;SDS011;7619;48.562;8.910;2022-07-22T01:29:58;5.17;;;4.43;;
15043;SDS011;7619;48.562;8.910;2022-07-22T01:32:27;5.27;;;4.10;;
15043;SDS011;7619;48.562;8.910;2022-07-22T01:34:55;8.27;;;4.43;;
15043;SDS011;7619;48.562;8.910;2022-07-22T01:37:24;6.80;;;4.10;;
15043;SDS011;7619;48.562;8.910;2022-07-22T01:39:53;4.63;;;4.23;;
15043;SDS011;7619;48.562;8.910;2022-07-22T01:42:22;4.37;;;4.03;;
15043;SDS011;7619;48.562;8.910;2022-07-22T01:44:51;6.00;;;4.23;;
15043;SDS011;7619;48.562;8.910;2022-07-22T01:47:20;5.50;;;4.50;;
15043;SDS011;7619;48.562;8.910;2022-07-22T01:49:49;5.83;;;4.80;;
15043;SDS011;7619;48.562;8.910;2022-07-22T01:52:19;5.97;;;4.90;;
15043;SDS011;7619;48.562;8.910;2022-07-22T01:54:46;7.03;;;4.60;;
15043;SDS011;7619;48.562;8.910;2022-07-22T01:57:15;6.87;;;4.93;;
15043;SDS011;7619;48.562;8.910;2022-07-22T01:59:44;6.40;;;4.67;;
15043;SDS011;7619;48.562;8.910;2022-07-22T02:02:13;6.17;;;4.20;;
15043;SDS011;7619;48.562;8.910;2022-07-22T02:04:42;4.37;;;3.97;;
15043;SDS011;7619;48.562;8.910;2022-07-22T02:07:11;6.50;;;4.70;;
15043;SDS011;7619;48.562;8.910;2022-07-22T02:09:39;5.07;;;4.67;;
15043;SDS011;7619;48.562;8.910;2022-07-22T02:12:08;6.63;;;4.83;;
15043;SDS011;7619;48.562;8.910;2022-07-22T02:14:37;5.53;;;4.57;;
15043;SDS011;7619;48.562;8.910;2022-07-22T02:17:06;5.17;;;4.40;;
15043;SDS011;7619;48.562;8.910;2022-07-22T02:19:35;5.47;;;4.60;;
15043;SDS011;7619;48.562;8.910;2022-07-22T02:22:04;5.17;;;4.50;;
15043;SDS011;7619;48.562;8.910;2022-07-22T02:24:33;6.07;;;4.90;;
15043;SDS011;7619;48.562;8.910;2022-07-22T02:27:02;6.07;;;4.90;;
15043;SDS011;7619;48.562;8.910;2022-07-22T02:29:31;6.33;;;5.03;;
15043;SDS011;7619;48.562;8.910;2022-07-22T02:32:01;5.70;;;5.10;;
15043;SDS011;7619;48.562;8.910;2022-07-22T02:34:28;6.37;;;5.00;;
15043;SDS011;7619;48.562;8.910;2022-07-22T02:36:57;5.63;;;4.97;;
15043;SDS011;7619;48.562;8.910;2022-07-22T02:39:26;5.67;;;5.07;;
15043;SDS011;7619;48.562;8.910;2022-07-22T02:41:55;5.73;;;5.13;;
15043;SDS011;7619;48.562;8.910;2022-07-22T02:44:25;5.00;;;4.50;;
15043;SDS011;7619;48.562;8.910;2022-07-22T02:46:52;7.67;;;4.60;;
15043;SDS011;7619;48.562;8.910;2022-07-22T02:49:21;6.17;;;5.03;;
15043;SDS011;7619;48.562;8.910;2022-07-22T02:51:50;5.17;;;4.67;;
15043;SDS011;7619;48.562;8.910;2022-07-22T02:54:19;6.73;;;5.23;;
15043;SDS011;7619;48.562;8.910;2022-07-22T02:56:47;8.27;;;5.30;;
15043;SDS011;7619;48.562;8.910;2022-07-22T02:59:16;6.77;;;5.07;;
15043;SDS011;7619;48.562;8.910;2022-07-22T03:01:45;6.33;;;5.10;;
15043;SDS011;7619;48.562;8.910;2022-07-22T03:04:13;5.57;;;4.93;;
15043;SDS011;7619;48.562;8.910;2022-07-22T03:06:42;5.07;;;4.63;;
15043;SDS011;7619;48.562;8.910;2022-07-22T03:09:11;5.23;;;4.63;;
15043;SDS011;7619;48.562;8.910;2022-07-22T03:11:40;8.27;;;4.80;;
15043;SDS011;7619;48.562;8.910;2022-07-22T03:14:09;5.17;;;4.10;;
15043;SDS011;7619;48.562;8.910;2022-07-22T03:16:37;6.23;;;4.80;;
15043;SDS011;7619;48.562;8.910;2022-07-22T03:19:06;7.73;;;5.70;;
15043;SDS011;7619;48.562;8.910;2022-07-22T03:21:35;4.73;;;4.23;;
15043;SDS011;7619;48.562;8.910;2022-07-22T03:24:04;7.77;;;4.33;;
15043;SDS011;7619;48.562;8.910;2022-07-22T03:26:33;5.10;;;4.40;;
15043;SDS011;7619;48.562;8.910;2022-07-22T03:29:02;5.47;;;4.83;;
15043;SDS011;7619;48.562;8.910;2022-07-22T03:31:32;4.43;;;3.97;;
15043;SDS011;7619;48.562;8.910;2022-07-22T03:34:00;5.40;;;4.90;;
15043;SDS011;7619;48.562;8.910;2022-07-22T03:36:27;5.60;;;4.97;;
15043;SDS011;7619;48.562;8.910;2022-07-22T03:38:56;8.43;;;4.80;;
15043;SDS011;7619;48.562;8.910;2022-07-22T03:41:25;5.33;;;4.70;;
15043;SDS011;7619;48.562;8.910;2022-07-22T03:43:55;8.10;;;6.07;;
15043;SDS011;7619;48.562;8.910;2022-07-22T03:46:22;5.90;;;5.23;;
15043;SDS011;7619;48.562;8.910;2022-07-22T03:48:51;5.63;;;4.80;;
15043;SDS011;7619;48.562;8.910;2022-07-22T03:51:20;6.23;;;5.43;;
15043;SDS011;7619;48.562;8.910;2022-07-22T03:53:49;5.40;;;4.90;;
15043;SDS011;7619;48.562;8.910;2022-07-22T03:56:17;7.20;;;5.63;;
15043;SDS011;7619;48.562;8.910;2022-07-22T03:58:46;6.67;;;5.43;;
15043;SDS011;7619;48.562;8.910;2022-07-22T04:01:15;7.77;;;5.60;;
15043;SDS011;7619;48.562;8.910;2022-07-22T04:03:44;6.20;;;5.60;;
15043;SDS011;7619;48.562;8.910;2022-07-22T04:06:14;6.07;;;5.47;;
15043;SDS011;7619;48.562;8.910;2022-07-22T04:08:43;7.60;;;5.57;;
15043;SDS011;7619;48.562;8.910;2022-07-22T04:11:12;6.63;;;5.17;;
15043;SDS011;7619;48.562;8.910;2022-07-22T04:13:41;7.10;;;5.33;;
15043;SDS011;7619;48.562;8.910;2022-07-22T04:16:10;8.00;;;5.27;;
15043;SDS011;7619;48.562;8.910;2022-07-22T04:18:39;6.03;;;5.33;;
15043;SDS011;7619;48.562;8.910;2022-07-22T04:21:08;7.60;;;5.60;;
15043;SDS011;7619;48.562;8.910;2022-07-22T04:23:37;5.80;;;5.30;;
15043;SDS011;7619;48.562;8.910;2022-07-22T04:26:06;6.43;;;5.50;;
15043;SDS011;7619;48.562;8.910;2022-07-22T04:28:35;5.77;;;5.23;;
15043;SDS011;7619;48.562;8.910;2022-07-22T04:31:04;7.17;;;5.43;;
15043;SDS011;7619;48.562;8.910;2022-07-22T04:33:33;7.10;;;5.63;;
15043;SDS011;7619;48.562;8.910;2022-07-22T04:36:12;7.40;;;5.50;;
15043;SDS011;7619;48.562;8.910;2022-07-22T04:38:40;6.00;;;5.40;;
15043;SDS011;7619;48.562;8.910;2022-07-22T04:41:08;5.60;;;4.67;;
15043;SDS011;7619;48.562;8.910;2022-07-22T04:43:47;4.80;;;4.40;;
15043;SDS011;7619;48.562;8.910;2022-07-22T04:46:16;9.30;;;4.80;;
15043;SDS011;7619;48.562;8.910;2022-07-22T04:48:44;4.67;;;4.27;;
15043;SDS011;7619;48.562;8.910;2022-07-22T04:51:13;5.13;;;4.30;;
15043;SDS011;7619;48.562;8.910;2022-07-22T04:53:42;5.37;;;4.53;;
15043;SDS011;7619;48.562;8.910;2022-07-22T04:56:11;6.90;;;4.93;;
15043;SDS011;7619;48.562;8.910;2022-07-22T04:58:40;5.00;;;4.50;;
15043;SDS011;7619;48.562;8.910;2022-07-22T05:01:09;5.20;;;4.70;;
15043;SDS011;7619;48.562;8.910;2022-07-22T05:03:39;8.37;;;5.10;;
15043;SDS011;7619;48.562;8.910;2022-07-22T05:06:08;6.03;;;4.63;;
15043;SDS011;7619;48.562;8.910;2022-07-22T05:08:37;5.40;;;4.27;;
15043;SDS011;7619;48.562;8.910;2022-07-22T05:11:06;5.53;;;4.80;;
15043;SDS011;7619;48.562;8.910;2022-07-22T05:13:35;12.90;;;4.43;;
15043;SDS011;7619;48.562;8.910;2022-07-22T05:16:04;6.17;;;5.17;;
15043;SDS011;7619;48.562;8.910;2022-07-22T05:18:34;5.00;;;4.37;;
15043;SDS011;7619;48.562;8.910;2022-07-22T05:21:03;4.70;;;4.20;;
15043;SDS011;7619;48.562;8.910;2022-07-22T05:23:32;5.53;;;4.00;;
15043;SDS011;7619;48.562;8.910;2022-07-22T05:26:03;5.33;;;4.57;;
15043;SDS011;7619;48.562;8.910;2022-07-22T05:28:32;6.77;;;5.20;;
15043;SDS011;7619;48.562;8.910;2022-07-22T05:31:01;4.93;;;4.20;;
15043;SDS011;7619;48.562;8.910;2022-07-22T05:33:30;6.60;;;4.60;;
15043;SDS011;7619;48.562;8.910;2022-07-22T05:35:59;4.57;;;4.17;;
15043;SDS011;7619;48.562;8.910;2022-07-22T05:38:30;5.90;;;4.50;;
15043;SDS011;7619;48.562;8.910;2022-07-22T05:40:59;4.03;;;3.70;;
15043;SDS011;7619;48.562;8.910;2022-07-22T05:43:28;5.07;;;4.50;;
15043;SDS011;7619;48.562;8.910;2022-07-22T05:45:58;4.90;;;4.03;;
15043;SDS011;7619;48.562;8.910;2022-07-22T05:48:26;4.50;;;4.00;;
15043;SDS011;7619;48.562;8.910;2022-07-22T05:50:55;4.10;;;3.70;;
15043;SDS011;7619;48.562;8.910;2022-07-22T05:53:24;6.33;;;3.70;;
15043;SDS011;7619;48.562;8.910;2022-07-22T05:55:53;4.27;;;3.73;;
15043;SDS011;7619;48.562;8.910;2022-07-22T05:58:22;6.10;;;4.70;;
15043;SDS011;7619;48.562;8.910;2022-07-22T06:00:51;5.17;;;4.10;;
15043;SDS011;7619;48.562;8.910;2022-07-22T06:03:19;6.13;;;4.10;;
15043;SDS011;7619;48.562;8.910;2022-07-22T06:05:48;5.70;;;4.40;;
15043;SDS011;7619;48.562;8.910;2022-07-22T06:08:18;4.57;;;4.00;;
15043;SDS011;7619;48.562;8.910;2022-07-22T06:10:46;4.57;;;4.17;;
15043;SDS011;7619;48.562;8.910;2022-07-22T06:13:15;5.33;;;4.53;;
15043;SDS011;7619;48.562;8.910;2022-07-22T06:15:44;4.50;;;4.03;;
15043;SDS011;7619;48.562;8.910;2022-07-22T06:18:13;9.57;;;4.63;;
15043;SDS011;7619;48.562;8.910;2022-07-22T06:20:42;4.90;;;4.27;;
15043;SDS011;7619;48.562;8.910;2022-07-22T06:23:10;4.53;;;4.13;;
15043;SDS011;7619;48.562;8.910;2022-07-22T06:25:39;5.47;;;4.10;;
15043;SDS011;7619;48.562;8.910;2022-07-22T06:28:08;4.43;;;4.03;;
15043;SDS011;7619;48.562;8.910;2022-07-22T06:30:38;4.60;;;4.20;;
15043;SDS011;7619;48.562;8.910;2022-07-22T06:33:07;5.20;;;4.70;;
15043;SDS011;7619;48.562;8.910;2022-07-22T06:35:38;5.03;;;4.53;;
15043;SDS011;7619;48.562;8.910;2022-07-22T06:38:07;6.27;;;4.97;;
15043;SDS011;7619;48.562;8.910;2022-07-22T06:40:36;4.93;;;4.10;;
15043;SDS011;7619;48.562;8.910;2022-07-22T06:43:05;5.00;;;4.50;;
15043;SDS011;7619;48.562;8.910;2022-07-22T06:45:33;5.00;;;4.50;;
15043;SDS011;7619;48.562;8.910;2022-07-22T06:48:01;5.97;;;5.20;;
15043;SDS011;7619;48.562;8.910;2022-07-22T06:50:30;6.70;;;5.17;;
15043;SDS011;7619;48.562;8.910;2022-07-22T06:52:59;6.03;;;4.90;;
15043;SDS011;7619;48.562;8.910;2022-07-22T06:55:28;4.93;;;4.27;;
15043;SDS011;7619;48.562;8.910;2022-07-22T06:57:57;5.13;;;4.63;;
15043;SDS011;7619;48.562;8.910;2022-07-22T07:00:26;5.60;;;4.67;;
15043;SDS011;7619;48.562;8.910;2022-07-22T07:02:58;6.53;;;4.70;;
15043;SDS011;7619;48.562;8.910;2022-07-22T07:05:27;7.67;;;4.30;;
15043;SDS011;7619;48.562;8.910;2022-07-22T07:07:56;5.77;;;4.43;;
15043;SDS011;7619;48.562;8.910;2022-07-22T07:10:25;5.20;;;4.33;;
15043;SDS011;7619;48.562;8.910;2022-07-22T07:12:55;5.83;;;4.63;;
15043;SDS011;7619;48.562;8.910;2022-07-22T07:15:25;5.13;;;4.53;;
15043;SDS011;7619;48.562;8.910;2022-07-22T07:17:55;5.37;;;4.67;;
15043;SDS011;7619;48.562;8.910;2022-07-22T07:20:23;7.67;;;4.10;;
15043;SDS011;7619;48.562;8.910;2022-07-22T07:22:52;5.30;;;4.63;;
15043;SDS011;7619;48.562;8.910;2022-07-22T07:25:21;5.63;;;5.03;;
15043;SDS011;7619;48.562;8.910;2022-07-22T07:27:48;5.13;;;4.53;;
15043;SDS011;7619;48.562;8.910;2022-07-22T07:30:18;4.80;;;4.30;;
15043;SDS011;7619;48.562;8.910;2022-07-22T07:32:47;4.40;;;3.93;;
15043;SDS011;7619;48.562;8.910;2022-07-22T07:35:16;5.13;;;4.63;;
15043;SDS011;7619;48.562;8.910;2022-07-22T07:37:45;4.93;;;4.23;;
15043;SDS011;7619;48.562;8.910;2022-07-22T07:40:15;4.47;;;4.03;;
15043;SDS011;7619;48.562;8.910;2022-07-22T07:42:43;5.83;;;4.63;;
15043;SDS011;7619;48.562;8.910;2022-07-22T07:45:12;5.67;;;4.47;;
15043;SDS011;7619;48.562;8.910;2022-07-22T07:47:41;5.17;;;4.63;;
15043;SDS011;7619;48.562;8.910;2022-07-22T07:50:10;7.40;;;5.20;;
15043;SDS011;7619;48.562;8.910;2022-07-22T07:52:39;5.00;;;4.50;;
15043;SDS011;7619;48.562;8.910;2022-07-22T07:55:11;4.70;;;4.27;;
15043;SDS011;7619;48.562;8.910;2022-07-22T07:57:39;4.97;;;4.47;;
15043;SDS011;7619;48.562;8.910;2022-07-22T08:00:10;4.83;;;4.33;;
15043;SDS011;7619;48.562;8.910;2022-07-22T08:02:41;5.57;;;4.23;;
15043;SDS011;7619;48.562;8.910;2022-07-22T08:05:09;5.77;;;4.20;;
15043;SDS011;7619;48.562;8.910;2022-07-22T08:07:39;5.03;;;4.27;;
15043;SDS011;7619;48.562;8.910;2022-07-22T08:10:07;5.27;;;3.87;;
15043;SDS011;7619;48.562;8.910;2022-07-22T08:12:44;6.77;;;4.30;;
15043;SDS011;7619;48.562;8.910;2022-07-22T08:15:14;4.63;;;3.97;;
15043;SDS011;7619;48.562;8.910;2022-07-22T08:17:41;4.23;;;3.90;;
15043;SDS011;7619;48.562;8.910;2022-07-22T08:20:10;5.03;;;3.90;;
15043;SDS011;7619;48.562;8.910;2022-07-22T08:22:39;4.93;;;3.93;;
15043;SDS011;7619;48.562;8.910;2022-07-22T08:25:08;3.93;;;3.63;;
15043;SDS011;7619;48.562;8.910;2022-07-22T08:27:37;4.60;;;4.20;;
15043;SDS011;7619;48.562;8.910;2022-07-22T08:30:07;5.10;;;4.17;;
15043;SDS011;7619;48.562;8.910;2022-07-22T08:32:46;4.30;;;3.83;;
15043;SDS011;7619;48.562;8.910;2022-07-22T08:35:15;5.67;;;3.70;;
15043;SDS011;7619;48.562;8.910;2022-07-22T08:37:45;5.10;;;3.80;;
15043;SDS011;7619;48.562;8.910;2022-07-22T08:40:23;4.87;;;4.37;;
15043;SDS011;7619;48.562;8.910;2022-07-22T08:42:52;5.17;;;4.60;;
15043;SDS011;7619;48.562;8.910;2022-07-22T08:45:21;4.70;;;4.30;;
15043;SDS011;7619;48.562;8.910;2022-07-22T08:47:51;4.53;;;4.03;;
15043;SDS011;7619;48.562;8.910;2022-07-22T08:50:21;5.60;;;3.93;;
15043;SDS011;7619;48.562;8.910;2022-07-22T08:52:49;4.43;;;4.03;;
15043;SDS011;7619;48.562;8.910;2022-07-22T08:55:18;4.97;;;4.10;;
15043;SDS011;7619;48.562;8.910;2022-07-22T08:57:46;4.20;;;3.37;;
15043;SDS011;7619;48.562;8.910;2022-07-22T09:00:17;3.83;;;3.53;;
15043;SDS011;7619;48.562;8.910;2022-07-22T09:02:48;4.27;;;3.40;;
15043;SDS011;7619;48.562;8.910;2022-07-22T09:05:16;3.93;;;3.60;;
15043;SDS011;7619;48.562;8.910;2022-07-22T09:07:46;3.50;;;3.20;;
15043;SDS011;7619;48.562;8.910;2022-07-22T09:10:16;3.97;;;3.20;;
15043;SDS011;7619;48.562;8.910;2022-07-22T09:12:53;3.77;;;3.47;;
15043;SDS011;7619;48.562;8.910;2022-07-22T09:15:25;4.13;;;3.73;;
15043;SDS011;7619;48.562;8.910;2022-07-22T09:17:55;4.13;;;3.43;;
15043;SDS011;7619;48.562;8.910;2022-07-22T09:20:25;3.37;;;3.07;;
15043;SDS011;7619;48.562;8.910;2022-07-22T09:22:55;7.63;;;4.00;;
15043;SDS011;7619;48.562;8.910;2022-07-22T09:25:25;3.90;;;3.37;;
15043;SDS011;7619;48.562;8.910;2022-07-22T09:27:56;4.87;;;3.50;;
15043;SDS011;7619;48.562;8.910;2022-07-22T09:30:38;3.67;;;3.27;;
15043;SDS011;7619;48.562;8.910;2022-07-22T09:33:07;5.27;;;3.53;;
15043;SDS011;7619;48.562;8.910;2022-07-22T09:35:37;3.40;;;3.10;;
15043;SDS011;7619;48.562;8.910;2022-07-22T09:38:06;5.50;;;3.33;;
15043;SDS011;7619;48.562;8.910;2022-07-22T09:40:37;4.53;;;3.60;;
15043;SDS011;7619;48.562;8.910;2022-07-22T09:43:07;4.83;;;3.70;;
15043;SDS011;7619;48.562;8.910;2022-07-22T09:45:43;3.93;;;3.20;;
15043;SDS011;7619;48.562;8.910;2022-07-22T09:48:21;4.37;;;3.23;;
15043;SDS011;7619;48.562;8.910;2022-07-22T09:50:51;4.00;;;3.60;;
15043;SDS011;7619;48.562;8.910;2022-07-22T09:53:23;4.20;;;3.07;;
15043;SDS011;7619;48.562;8.910;2022-07-22T09:55:54;6.13;;;3.63;;
15043;SDS011;7619;48.562;8.910;2022-07-22T09:58:23;4.37;;;3.50;;
15043;SDS011;7619;48.562;8.910;2022-07-22T10:00:53;3.73;;;3.43;;
15043;SDS011;7619;48.562;8.910;2022-07-22T10:03:26;4.07;;;3.67;;
15043;SDS011;7619;48.562;8.910;2022-07-22T10:05:55;3.67;;;3.37;;
15043;SDS011;7619;48.562;8.910;2022-07-22T10:08:25;3.97;;;3.67;;
15043;SDS011;7619;48.562;8.910;2022-07-22T10:10:57;6.07;;;4.07;;
15043;SDS011;7619;48.562;8.910;2022-07-22T10:13:26;3.67;;;3.37;;
15043;SDS011;7619;48.562;8.910;2022-07-22T10:15:56;3.77;;;3.47;;
15043;SDS011;7619;48.562;8.910;2022-07-22T10:18:26;4.90;;;4.03;;
15043;SDS011;7619;48.562;8.910;2022-07-22T10:21:02;3.27;;;2.93;;
15043;SDS011;7619;48.562;8.910;2022-07-22T10:23:33;5.07;;;3.50;;
15043;SDS011;7619;48.562;8.910;2022-07-22T10:26:03;5.43;;;3.70;;
15043;SDS011;7619;48.562;8.910;2022-07-22T10:28:33;3.83;;;3.27;;
15043;SDS011;7619;48.562;8.910;2022-07-22T10:34:09;3.80;;;3.40;;
15043;SDS011;7619;48.562;8.910;2022-07-22T10:39:16;5.43;;;4.27;;
15043;SDS011;7619;48.562;8.910;2022-07-22T10:41:44;4.63;;;3.70;;
15043;SDS011;7619;48.562;8.910;2022-07-22T10:47:14;4.23;;;3.70;;
15043;SDS011;7619;48.562;8.910;2022-07-22T10:49:43;4.30;;;3.90;;
15043;SDS011;7619;48.562;8.910;2022-07-22T10:52:12;4.50;;;3.63;;
15043;SDS011;7619;48.562;8.910;2022-07-22T10:57:53;5.23;;;3.83;;
15043;SDS011;7619;48.562;8.910;2022-07-22T11:00:22;4.67;;;3.63;;
15043;SDS011;7619;48.562;8.910;2022-07-22T11:02:51;4.63;;;3.80;;
15043;SDS011;7619;48.562;8.910;2022-07-22T11:05:26;5.90;;;3.77;;
15043;SDS011;7619;48.562;8.910;2022-07-22T11:07:57;4.27;;;3.80;;
15043;SDS011;7619;48.562;8.910;2022-07-22T11:10:24;4.20;;;3.40;;
15043;SDS011;7619;48.562;8.910;2022-07-22T11:12:53;5.43;;;3.53;;
15043;SDS011;7619;48.562;8.910;2022-07-22T11:15:25;4.63;;;3.73;;
15043;SDS011;7619;48.562;8.910;2022-07-22T11:17:55;5.83;;;3.43;;
15043;SDS011;7619;48.562;8.910;2022-07-22T11:20:25;4.33;;;3.40;;
15043;SDS011;7619;48.562;8.910;2022-07-22T11:22:54;5.10;;;3.40;;
15043;SDS011;7619;48.562;8.910;2022-07-22T11:25:25;3.53;;;3.20;;
15043;SDS011;7619;48.562;8.910;2022-07-22T11:27:55;3.17;;;2.90;;
15043;SDS011;7619;48.562;8.910;2022-07-22T11:30:24;4.77;;;3.60;;
15043;SDS011;7619;48.562;8.910;2022-07-22T11:33:02;4.00;;;3.60;;
15043;SDS011;7619;48.562;8.910;2022-07-22T11:35:31;4.33;;;3.93;;
15043;SDS011;7619;48.562;8.910;2022-07-22T11:38:00;4.37;;;3.60;;
15043;SDS011;7619;48.562;8.910;2022-07-22T11:40:32;4.80;;;3.17;;
15043;SDS011;7619;48.562;8.910;2022-07-22T11:43:02;3.73;;;3.43;;
15043;SDS011;7619;48.562;8.910;2022-07-22T11:45:31;4.40;;;3.73;;
15043;SDS011;7619;48.562;8.910;2022-07-22T11:48:08;3.63;;;2.77;;
15043;SDS011;7619;48.562;8.910;2022-07-22T11:50:36;4.63;;;3.57;;
15043;SDS011;7619;48.562;8.910;2022-07-22T11:53:04;4.93;;;3.57;;
15043;SDS011;7619;48.562;8.910;2022-07-22T11:55:33;3.57;;;3.27;;
15043;SDS011;7619;48.562;8.910;2022-07-22T11:58:02;3.57;;;3.27;;
15043;SDS011;7619;48.562;8.910;2022-07-22T12:00:31;5.33;;;3.63;;
15043;SDS011;7619;48.562;8.910;2022-07-22T12:03:00;4.00;;;3.50;;
15043;SDS011;7619;48.562;8.910;2022-07-22T12:05:29;4.10;;;3.53;;
15043;SDS011;7619;48.562;8.910;2022-07-22T12:07:58;4.73;;;3.10;;
15043;SDS011;7619;48.562;8.910;2022-07-22T12:10:28;4.00;;;3.70;;
15043;SDS011;7619;48.562;8.910;2022-07-22T12:12:57;4.20;;;3.53;;
15043;SDS011;7619;48.562;8.910;2022-07-22T12:15:26;3.93;;;3.50;;
15043;SDS011;7619;48.562;8.910;2022-07-22T12:17:54;4.10;;;3.70;;
15043;SDS011;7619;48.562;8.910;2022-07-22T12:20:43;3.73;;;3.43;;
15043;SDS011;7619;48.562;8.910;2022-07-22T12:23:12;5.10;;;3.27;;
15043;SDS011;7619;48.562;8.910;2022-07-22T12:25:51;3.63;;;3.33;;
15043;SDS011;7619;48.562;8.910;2022-07-22T12:28:22;3.23;;;2.93;;
15043;SDS011;7619;48.562;8.910;2022-07-22T12:30:50;3.43;;;3.13;;
15043;SDS011;7619;48.562;8.910;2022-07-22T12:33:20;4.40;;;4.00;;
15043;SDS011;7619;48.562;8.910;2022-07-22T12:36:01;4.70;;;3.30;;
15043;SDS011;7619;48.562;8.910;2022-07-22T12:38:32;3.93;;;3.00;;
15043;SDS011;7619;48.562;8.910;2022-07-22T12:41:21;3.33;;;3.03;;
15043;SDS011;7619;48.562;8.910;2022-07-22T12:44:01;3.67;;;3.33;;
15043;SDS011;7619;48.562;8.910;2022-07-22T12:46:28;3.87;;;3.23;;
15043;SDS011;7619;48.562;8.910;2022-07-22T12:48:56;3.47;;;3.17;;
15043;SDS011;7619;48.562;8.910;2022-07-22T12:51:26;3.87;;;3.40;;
15043;SDS011;7619;48.562;8.910;2022-07-22T12:53:56;3.80;;;3.50;;
15043;SDS011;7619;48.562;8.910;2022-07-22T12:56:24;4.80;;;3.40;;
15043;SDS011;7619;48.562;8.910;2022-07-22T12:58:53;4.53;;;3.23;;
15043;SDS011;7619;48.562;8.910;2022-07-22T13:01:23;4.93;;;3.50;;
15043;SDS011;7619;48.562;8.910;2022-07-22T13:03:52;3.93;;;3.63;;
15043;SDS011;7619;48.562;8.910;2022-07-22T13:06:20;4.00;;;3.60;;
15043;SDS011;7619;48.562;8.910;2022-07-22T13:08:49;3.90;;;3.43;;
15043;SDS011;7619;48.562;8.910;2022-07-22T13:11:18;3.37;;;3.07;;
15043;SDS011;7619;48.562;8.910;2022-07-22T13:13:47;3.53;;;3.23;;
15043;SDS011;7619;48.562;8.910;2022-07-22T13:16:16;4.17;;;3.60;;
15043;SDS011;7619;48.562;8.910;2022-07-22T13:18:45;4.03;;;3.40;;
15043;SDS011;7619;48.562;8.910;2022-07-22T13:21:14;3.10;;;2.77;;
15043;SDS011;7619;48.562;8.910;2022-07-22T13:23:43;3.33;;;3.03;;
15043;SDS011;7619;48.562;8.910;2022-07-22T13:26:12;4.93;;;2.93;;
15043;SDS011;7619;48.562;8.910;2022-07-22T13:28:40;3.20;;;2.90;;
15043;SDS011;7619;48.562;8.910;2022-07-22T13:31:10;3.50;;;2.93;;
15043;SDS011;7619;48.562;8.910;2022-07-22T13:33:37;4.23;;;3.33;;
15043;SDS011;7619;48.562;8.910;2022-07-22T13:36:07;3.60;;;3.10;;
15043;SDS011;7619;48.562;8.910;2022-07-22T13:38:37;3.33;;;3.03;;
15043;SDS011;7619;48.562;8.910;2022-07-22T13:41:05;3.20;;;2.93;;
15043;SDS011;7619;48.562;8.910;2022-07-22T13:43:36;3.70;;;3.40;;
15043;SDS011;7619;48.562;8.910;2022-07-22T13:46:04;4.03;;;3.63;;
15043;SDS011;7619;48.562;8.910;2022-07-22T13:48:33;3.17;;;2.90;;
15043;SDS011;7619;48.562;8.910;2022-07-22T13:51:01;3.23;;;2.93;;
15043;SDS011;7619;48.562;8.910;2022-07-22T13:53:31;3.70;;;3.40;;
15043;SDS011;7619;48.562;8.910;2022-07-22T13:56:00;5.00;;;3.07;;
15043;SDS011;7619;48.562;8.910;2022-07-22T13:58:30;4.00;;;3.60;;
15043;SDS011;7619;48.562;8.910;2022-07-22T14:00:59;3.53;;;2.90;;
15043;SDS011;7619;48.562;8.910;2022-07-22T14:03:28;3.70;;;3.40;;
15043;SDS011;7619;48.562;8.910;2022-07-22T14:05:57;3.57;;;3.07;;
15043;SDS011;7619;48.562;8.910;2022-07-22T14:08:24;4.00;;;3.33;;
15043;SDS011;7619;48.562;8.910;2022-07-22T14:10:53;3.40;;;3.10;;
15043;SDS011;7619;48.562;8.910;2022-07-22T14:13:22;2.97;;;2.77;;
15043;SDS011;7619;48.562;8.910;2022-07-22T14:15:51;3.20;;;2.87;;
15043;SDS011;7619;48.562;8.910;2022-07-22T14:18:20;3.77;;;3.23;;
15043;SDS011;7619;48.562;8.910;2022-07-22T14:20:49;4.37;;;3.37;;
15043;SDS011;7619;48.562;8.910;2022-07-22T14:23:18;3.60;;;3.30;;
15043;SDS011;7619;48.562;8.910;2022-07-22T14:25:49;3.50;;;3.20;;
15043;SDS011;7619;48.562;8.910;2022-07-22T14:28:18;3.30;;;3.00;;
15043;SDS011;7619;48.562;8.910;2022-07-22T14:30:47;4.03;;;3.57;;
15043;SDS011;7619;48.562;8.910;2022-07-22T14:33:16;3.97;;;3.00;;
15043;SDS011;7619;48.562;8.910;2022-07-22T14:35:45;3.30;;;3.10;;
15043;SDS011;7619;48.562;8.910;2022-07-22T14:38:14;3.83;;;3.40;;
15043;SDS011;7619;48.562;8.910;2022-07-22T14:40:43;3.10;;;2.90;;
15043;SDS011;7619;48.562;8.910;2022-07-22T14:43:13;4.77;;;3.33;;
15043;SDS011;7619;48.562;8.910;2022-07-22T14:45:41;3.40;;;3.10;;
15043;SDS011;7619;48.562;8.910;2022-07-22T14:48:10;3.20;;;3.00;;
15043;SDS011;7619;48.562;8.910;2022-07-22T14:50:39;3.20;;;2.90;;
15043;SDS011;7619;48.562;8.910;2022-07-22T14:53:09;4.00;;;3.70;;
15043;SDS011;7619;48.562;8.910;2022-07-22T14:55:36;3.00;;;2.80;;
15043;SDS011;7619;48.562;8.910;2022-07-22T14:58:05;3.47;;;3.20;;
15043;SDS011;7619;48.562;8.910;2022-07-22T15:00:34;4.00;;;3.60;;
15043;SDS011;7619;48.562;8.910;2022-07-22T15:03:03;3.87;;;3.43;;
15043;SDS011;7619;48.562;8.910;2022-07-22T15:05:33;3.73;;;3.40;;
15043;SDS011;7619;48.562;8.910;2022-07-22T15:08:00;4.27;;;3.27;;
15043;SDS011;7619;48.562;8.910;2022-07-22T15:10:29;4.03;;;3.37;;
15043;SDS011;7619;48.562;8.910;2022-07-22T15:12:58;3.00;;;2.80;;
15043;SDS011;7619;48.562;8.910;2022-07-22T15:15:25;4.07;;;3.60;;
15043;SDS011;7619;48.562;8.910;2022-07-22T15:17:54;3.33;;;3.03;;
15043;SDS011;7619;48.562;8.910;2022-07-22T15:20:24;3.77;;;3.40;;
15043;SDS011;7619;48.562;8.910;2022-07-22T15:22:54;3.37;;;3.07;;
15043;SDS011;7619;48.562;8.910;2022-07-22T15:25:23;4.53;;;3.70;;